Time;durP1;ratioP1;P1;durP2;ratioP2;P2;SDS_P1;SDS_P2;PMS_P1;PMS_P2;Temp;Humidity;BMP_temperature;BMP_pressure;BME280_temperature;BME280_humidity;BME280_pressure;Samples;Min_cycle;Max_cycle;Signal;HPM_P1;HPM_P2
2023/07/05 00:00:21;;;;;;;7.63;5.28;;;16.20;95.30;;;;;;4952263;28;20046;-87
2023/07/05 00:02:50;;;;;;;9.10;4.90;;;16.20;95.70;;;;;;4957244;28;20042;-86
2023/07/05 00:05:16;;;;;;;8.18;5.00;;;16.10;95.60;;;;;;4959081;28;20034;-87
2023/07/05 00:07:42;;;;;;;7.65;5.50;;;16.10;95.50;;;;;;4972685;28;20041;-86
2023/07/05 00:10:08;;;;;;;6.72;4.65;;;16.10;96.30;;;;;;4979732;28;20044;-86
2023/07/05 00:12:34;;;;;;;7.15;5.00;;;16.10;96.20;;;;;;4980766;28;20034;-86
2023/07/05 00:15:00;;;;;;;7.82;5.10;;;16.00;96.50;;;;;;4944579;28;20034;-87
2023/07/05 00:17:26;;;;;;;5.75;4.65;;;16.00;96.50;;;;;;4962150;28;20030;-87
2023/07/05 00:19:52;;;;;;;7.95;5.18;;;15.90;96.50;;;;;;4981825;28;20404;-87
2023/07/05 00:22:18;;;;;;;8.45;4.68;;;15.80;96.30;;;;;;4966152;28;20031;-88
2023/07/05 00:24:45;;;;;;;6.40;4.97;;;15.80;96.10;;;;;;4960210;28;20026;-87
2023/07/05 00:27:12;;;;;;;9.23;5.00;;;15.80;96.00;;;;;;4950607;28;20477;-86
2023/07/05 00:29:39;;;;;;;7.15;4.80;;;15.70;96.10;;;;;;4978416;28;20038;-87
2023/07/05 00:32:05;;;;;;;7.03;5.00;;;15.70;96.30;;;;;;4956607;28;20129;-87
2023/07/05 00:34:31;;;;;;;6.72;4.75;;;15.60;96.30;;;;;;4950376;28;20055;-87
2023/07/05 00:36:56;;;;;;;5.88;4.85;;;15.50;96.50;;;;;;4965876;28;20481;-86
2023/07/05 00:39:23;;;;;;;8.02;5.20;;;15.50;96.60;;;;;;4955888;28;20180;-87
2023/07/05 00:41:48;;;;;;;8.15;5.88;;;15.40;96.70;;;;;;4965162;28;20510;-86
2023/07/05 00:44:14;;;;;;;7.60;5.40;;;15.30;96.30;;;;;;4963034;28;20114;-88
2023/07/05 00:46:47;;;;;;;9.65;5.60;;;15.30;96.00;;;;;;4952644;28;20031;-86
2023/07/05 00:49:17;;;;;;;8.63;5.63;;;15.20;96.60;;;;;;4972068;28;20066;-86
2023/07/05 00:51:51;;;;;;;9.65;5.50;;;15.20;96.80;;;;;;4977700;28;20061;-86
2023/07/05 00:54:22;;;;;;;7.25;5.35;;;15.10;96.80;;;;;;4989480;28;20031;-86
2023/07/05 00:57:06;;;;;;;6.63;5.40;;;15.10;96.60;;;;;;4988089;28;20039;-86
2023/07/05 00:59:41;;;;;;;7.00;5.13;;;15.00;96.50;;;;;;4980204;28;20053;-86
2023/07/05 01:02:07;;;;;;;7.10;5.68;;;15.00;96.60;;;;;;4979303;28;20410;-86
2023/07/05 01:04:34;;;;;;;8.85;5.35;;;14.90;96.50;;;;;;4951379;28;20097;-88
2023/07/05 01:06:59;;;;;;;8.45;6.03;;;14.90;96.50;;;;;;4986898;28;20037;-87
2023/07/05 01:09:28;;;;;;;7.28;5.80;;;14.90;96.40;;;;;;4976560;28;20136;-86
2023/07/05 01:12:27;;;;;;;7.70;5.65;;;14.80;96.80;;;;;;4953570;28;20035;-87
2023/07/05 01:15:15;;;;;;;11.80;5.95;;;14.70;97.40;;;;;;4950314;28;20378;-86
2023/07/05 01:17:53;;;;;;;7.72;5.63;;;14.70;97.40;;;;;;4978055;28;20023;-85
2023/07/05 01:21:06;;;;;;;8.30;5.80;;;14.60;97.60;;;;;;4991103;28;20033;-86
2023/07/05 01:23:32;;;;;;;8.90;5.65;;;14.60;97.90;;;;;;4982678;28;20050;-87
2023/07/05 01:26:25;;;;;;;6.78;5.47;;;14.60;98.20;;;;;;4988294;28;20034;-87
2023/07/05 01:29:29;;;;;;;7.43;5.88;;;14.50;98.10;;;;;;4976214;28;20034;-86
2023/07/05 01:32:16;;;;;;;8.20;6.22;;;14.50;98.10;;;;;;4987968;28;20023;-86
2023/07/05 01:34:57;;;;;;;9.20;6.13;;;14.40;98.20;;;;;;4994101;28;20026;-85
2023/07/05 01:37:34;;;;;;;9.23;5.70;;;14.40;98.30;;;;;;4981800;28;20027;-87
2023/07/05 01:40:00;;;;;;;9.45;6.32;;;14.40;98.50;;;;;;4967843;28;20031;-86
2023/07/05 01:42:31;;;;;;;8.75;5.93;;;14.30;98.70;;;;;;4981877;28;20066;-85
2023/07/05 01:44:57;;;;;;;9.32;6.00;;;14.30;99.40;;;;;;4985378;28;20100;-86
2023/07/05 01:47:46;;;;;;;8.98;6.63;;;14.30;99.50;;;;;;4984591;28;20122;-85
2023/07/05 01:50:34;;;;;;;8.75;5.75;;;14.20;99.90;;;;;;4990556;28;20031;-85
2023/07/05 01:53:07;;;;;;;9.73;6.30;;;14.20;99.90;;;;;;4967132;28;20078;-86
2023/07/05 01:55:52;;;;;;;10.10;5.70;;;14.20;99.90;;;;;;4954885;28;20134;-86
2023/07/05 01:58:20;;;;;;;12.30;6.35;;;14.10;99.90;;;;;;4984249;28;20436;-88
2023/07/05 02:00:47;;;;;;;13.90;6.68;;;14.10;99.90;;;;;;4983436;28;20057;-86
2023/07/05 02:03:18;;;;;;;9.38;6.97;;;14.10;99.90;;;;;;4979128;28;20031;-87
2023/07/05 02:05:47;;;;;;;8.25;6.25;;;14.10;99.90;;;;;;4985387;28;20056;-87
2023/07/05 02:08:14;;;;;;;11.13;6.15;;;14.10;99.90;;;;;;4974310;28;20030;-87
2023/07/05 02:10:41;;;;;;;10.82;6.65;;;14.00;99.90;;;;;;4987523;28;20037;-87
2023/07/05 02:13:08;;;;;;;9.13;6.85;;;14.00;99.90;;;;;;4969693;28;20038;-86
2023/07/05 02:15:37;;;;;;;10.18;7.15;;;14.00;99.90;;;;;;4988159;28;20416;-86
2023/07/05 02:18:04;;;;;;;13.40;7.55;;;14.00;99.90;;;;;;4985471;28;20209;-86
2023/07/05 02:20:30;;;;;;;13.45;7.13;;;14.00;99.90;;;;;;4979188;28;20069;-87
2023/07/05 02:22:56;;;;;;;11.40;7.45;;;14.00;99.90;;;;;;4962500;28;20093;-86
2023/07/05 02:25:22;;;;;;;13.20;6.88;;;14.00;99.90;;;;;;4978812;28;20027;-86
2023/07/05 02:27:48;;;;;;;11.15;7.82;;;13.90;99.90;;;;;;4984087;28;20037;-86
2023/07/05 02:30:15;;;;;;;13.10;7.82;;;13.90;99.90;;;;;;4996217;28;20543;-86
2023/07/05 02:32:43;;;;;;;12.82;8.02;;;13.90;99.90;;;;;;4998505;28;20041;-86
2023/07/05 02:35:08;;;;;;;12.02;7.90;;;13.90;99.90;;;;;;4967394;28;20027;-87
2023/07/05 02:37:35;;;;;;;11.70;7.47;;;13.90;99.90;;;;;;4973720;28;20043;-85
2023/07/05 02:40:01;;;;;;;10.93;7.40;;;13.80;99.90;;;;;;4948470;28;20688;-85
2023/07/05 02:42:29;;;;;;;10.52;7.82;;;13.80;99.90;;;;;;4982119;28;20026;-86
2023/07/05 02:44:57;;;;;;;12.48;8.02;;;13.80;99.90;;;;;;4977774;28;20038;-85
2023/07/05 02:47:23;;;;;;;11.80;7.57;;;13.80;99.90;;;;;;4993249;28;20534;-87
2023/07/05 02:49:49;;;;;;;13.45;7.80;;;13.80;99.90;;;;;;4978748;28;20033;-85
2023/07/05 02:52:16;;;;;;;11.23;7.07;;;13.80;99.90;;;;;;4987311;28;20034;-85
2023/07/05 02:54:42;;;;;;;14.70;7.47;;;13.80;99.90;;;;;;4986740;28;20493;-86
2023/07/05 02:57:07;;;;;;;13.57;8.07;;;13.70;99.90;;;;;;4978902;28;20133;-87
2023/07/05 02:59:33;;;;;;;13.40;7.95;;;13.70;99.90;;;;;;4960460;28;20120;-85
2023/07/05 03:01:59;;;;;;;17.92;8.98;;;13.70;99.90;;;;;;4955542;28;20696;-86
2023/07/05 03:04:26;;;;;;;12.23;8.07;;;13.60;99.90;;;;;;4978474;28;20033;-87
2023/07/05 03:06:52;;;;;;;16.67;8.88;;;13.70;99.90;;;;;;4975397;28;20057;-86
2023/07/05 03:09:18;;;;;;;14.57;8.43;;;13.70;99.90;;;;;;4976230;28;20026;-86
2023/07/05 03:11:44;;;;;;;16.67;8.45;;;13.70;99.90;;;;;;4968383;28;20030;-86
2023/07/05 03:14:09;;;;;;;11.85;7.88;;;13.80;99.90;;;;;;4977014;28;20045;-86
2023/07/05 03:16:35;;;;;;;11.07;7.72;;;13.80;99.90;;;;;;4975767;28;20129;-86
2023/07/05 03:19:02;;;;;;;12.93;8.10;;;13.80;99.90;;;;;;4992739;28;20129;-85
2023/07/05 03:21:28;;;;;;;11.63;7.57;;;13.90;99.90;;;;;;4969024;28;20057;-86
2023/07/05 03:23:53;;;;;;;12.63;8.13;;;13.90;99.90;;;;;;4984466;28;20038;-86
2023/07/05 03:26:21;;;;;;;13.52;7.43;;;14.00;99.90;;;;;;4992010;28;20086;-85
2023/07/05 03:28:47;;;;;;;13.60;7.90;;;14.00;99.90;;;;;;4969734;28;20035;-85
2023/07/05 03:31:16;;;;;;;12.30;7.18;;;14.00;99.90;;;;;;4975870;28;20061;-85
2023/07/05 03:33:41;;;;;;;10.73;6.90;;;14.10;99.90;;;;;;4987297;28;20080;-87
2023/07/05 03:36:11;;;;;;;9.45;6.50;;;14.20;99.90;;;;;;4980748;28;20097;-86
2023/07/05 03:38:37;;;;;;;10.10;5.97;;;14.30;99.90;;;;;;5003770;28;20034;-86
2023/07/05 03:41:06;;;;;;;11.55;6.45;;;14.30;99.90;;;;;;4991730;28;20034;-86
2023/07/05 03:43:36;;;;;;;12.07;7.00;;;14.30;99.90;;;;;;4986677;28;20035;-84
2023/07/05 03:46:04;;;;;;;8.68;6.75;;;14.30;99.90;;;;;;4984255;28;20496;-85
2023/07/05 03:48:33;;;;;;;11.25;7.10;;;14.30;99.90;;;;;;4994780;28;20034;-85
2023/07/05 03:50:59;;;;;;;13.02;7.22;;;14.20;99.90;;;;;;4967192;28;20121;-85
2023/07/05 03:53:25;;;;;;;12.48;7.68;;;14.30;99.90;;;;;;4936685;28;1231129;-85
2023/07/05 03:55:51;;;;;;;9.90;7.68;;;14.30;99.90;;;;;;4974757;28;20057;-86
2023/07/05 03:58:17;;;;;;;11.80;8.15;;;14.40;99.90;;;;;;4971040;28;20132;-86
2023/07/05 04:00:44;;;;;;;14.35;8.18;;;14.60;99.90;;;;;;4982448;28;20030;-85
2023/07/05 04:03:10;;;;;;;10.65;7.35;;;14.60;99.90;;;;;;4985883;28;20026;-86
2023/07/05 04:05:35;;;;;;;11.43;6.72;;;14.50;99.90;;;;;;4958414;28;20555;-85
2023/07/05 04:08:01;;;;;;;8.07;5.18;;;14.60;99.90;;;;;;4959433;28;20042;-85
2023/07/05 04:10:27;;;;;;;7.78;5.50;;;14.70;99.90;;;;;;4979105;28;20090;-86
2023/07/05 04:12:53;;;;;;;6.68;5.28;;;14.60;99.90;;;;;;4950553;28;20114;-85
2023/07/05 04:15:19;;;;;;;7.43;5.00;;;14.50;99.90;;;;;;4975814;28;20038;-85
2023/07/05 04:17:45;;;;;;;10.38;5.65;;;14.50;99.90;;;;;;4970181;28;20173;-85
2023/07/05 04:20:12;;;;;;;9.00;5.35;;;14.40;99.90;;;;;;4982064;28;20444;-85
2023/07/05 04:22:40;;;;;;;13.90;5.82;;;14.40;99.90;;;;;;4974876;28;20042;-85
2023/07/05 04:25:06;;;;;;;8.65;5.95;;;14.40;99.90;;;;;;4960197;28;20038;-86
2023/07/05 04:27:32;;;;;;;7.22;4.93;;;14.40;99.90;;;;;;4962415;28;20489;-84
2023/07/05 04:29:58;;;;;;;11.85;6.00;;;14.40;99.90;;;;;;4996889;28;20042;-85
2023/07/05 04:32:24;;;;;;;8.63;5.13;;;14.40;99.90;;;;;;4984090;28;20042;-85
2023/07/05 04:34:50;;;;;;;6.72;5.32;;;14.40;99.90;;;;;;4960515;28;20490;-85
2023/07/05 04:37:16;;;;;;;5.63;4.55;;;14.50;99.90;;;;;;4957957;28;20042;-85
2023/07/05 04:39:42;;;;;;;6.18;4.68;;;14.50;99.90;;;;;;4959285;28;20154;-86
2023/07/05 04:42:08;;;;;;;7.63;4.82;;;14.70;99.90;;;;;;4971213;28;20096;-86
2023/07/05 04:44:33;;;;;;;4.97;4.32;;;14.70;99.90;;;;;;4956622;28;20066;-87
2023/07/05 04:46:59;;;;;;;6.68;4.90;;;14.90;99.90;;;;;;4984020;28;20041;-85
2023/07/05 04:49:25;;;;;;;8.63;5.25;;;14.90;99.90;;;;;;4956352;28;20076;-85
2023/07/05 04:51:51;;;;;;;7.35;5.05;;;15.10;99.90;;;;;;4960383;28;20060;-86
2023/07/05 04:54:17;;;;;;;7.10;4.90;;;15.10;99.90;;;;;;4957791;28;20034;-86
2023/07/05 04:56:43;;;;;;;7.40;4.60;;;15.10;99.90;;;;;;4970908;28;20501;-85
2023/07/05 04:59:10;;;;;;;8.10;4.70;;;15.10;99.90;;;;;;4959952;28;20046;-85
2023/07/05 05:01:37;;;;;;;9.60;4.65;;;15.20;99.90;;;;;;4982699;28;20581;-85
2023/07/05 05:04:03;;;;;;;6.38;4.30;;;15.20;99.90;;;;;;4970771;28;20383;-86
2023/07/05 05:06:29;;;;;;;6.43;4.32;;;15.20;99.90;;;;;;4997807;28;20030;-85
2023/07/05 05:08:55;;;;;;;6.68;4.97;;;15.30;99.90;;;;;;4997434;28;20053;-86
2023/07/05 05:11:21;;;;;;;10.15;4.85;;;15.40;99.90;;;;;;4967840;28;20088;-85
2023/07/05 05:13:49;;;;;;;7.93;4.35;;;15.40;99.90;;;;;;4966238;28;20562;-85
2023/07/05 05:16:15;;;;;;;6.82;4.68;;;15.50;99.90;;;;;;4981206;28;20121;-85
2023/07/05 05:18:43;;;;;;;5.53;3.97;;;15.60;99.90;;;;;;4986962;28;20039;-86
2023/07/05 05:21:09;;;;;;;6.93;4.22;;;15.70;99.90;;;;;;4961231;28;20045;-85
2023/07/05 05:23:36;;;;;;;6.10;4.10;;;15.70;99.90;;;;;;4984725;28;20488;-86
2023/07/05 05:26:02;;;;;;;7.53;4.20;;;15.70;99.90;;;;;;4976325;28;21516;-86
2023/07/05 05:28:30;;;;;;;6.28;4.22;;;15.70;99.90;;;;;;4976161;28;20046;-88
2023/07/05 05:31:09;;;;;;;7.53;4.35;;;15.60;99.90;;;;;;4976139;28;20050;-88
2023/07/05 05:33:36;;;;;;;6.10;4.25;;;15.50;99.90;;;;;;4974865;28;20030;-89
2023/07/05 05:36:02;;;;;;;7.10;4.53;;;15.40;99.90;;;;;;4969410;28;20038;-89
2023/07/05 05:38:28;;;;;;;12.35;4.60;;;15.20;99.90;;;;;;4979287;28;20443;-87
2023/07/05 05:41:01;;;;;;;6.43;3.83;;;15.10;99.90;;;;;;4991753;28;20030;-88
2023/07/05 05:43:26;;;;;;;7.85;4.38;;;14.90;99.90;;;;;;4976934;28;20026;-87
2023/07/05 05:45:52;;;;;;;6.32;3.85;;;14.80;99.90;;;;;;4973176;28;20440;-86
2023/07/05 05:48:18;;;;;;;4.38;3.83;;;14.80;99.90;;;;;;4964328;28;20042;-87
2023/07/05 05:50:45;;;;;;;12.02;4.45;;;14.80;99.90;;;;;;4973265;28;20033;-86
2023/07/05 05:53:11;;;;;;;8.73;5.13;;;14.80;99.90;;;;;;4948949;28;20042;-86
2023/07/05 05:55:38;;;;;;;7.50;4.93;;;14.90;99.90;;;;;;4956672;28;20064;-87
2023/07/05 05:58:04;;;;;;;10.82;6.47;;;15.00;99.90;;;;;;4966616;28;20428;-86
2023/07/05 06:00:31;;;;;;;7.97;5.65;;;14.90;99.90;;;;;;4941203;28;20039;-87
2023/07/05 06:02:57;;;;;;;7.03;5.10;;;14.90;99.90;;;;;;4988781;28;20138;-87
2023/07/05 06:05:23;;;;;;;8.35;5.13;;;15.00;99.90;;;;;;4972396;28;20050;-86
2023/07/05 06:07:49;;;;;;;10.45;5.15;;;15.10;99.90;;;;;;4989078;28;20113;-87
2023/07/05 06:10:15;;;;;;;7.45;5.60;;;15.10;99.90;;;;;;4978418;28;20920;-88
2023/07/05 06:12:41;;;;;;;7.20;5.30;;;15.30;99.90;;;;;;4942474;28;20057;-87
2023/07/05 06:15:13;;;;;;;9.77;5.35;;;15.30;99.90;;;;;;4963157;28;20039;-85
2023/07/05 06:17:39;;;;;;;7.85;5.72;;;15.40;99.90;;;;;;4995136;28;20045;-87
2023/07/05 06:20:06;;;;;;;6.95;5.03;;;15.40;99.90;;;;;;4995627;28;20110;-87
2023/07/05 06:22:36;;;;;;;7.68;5.05;;;15.50;99.90;;;;;;4975863;28;20037;-87
2023/07/05 06:25:02;;;;;;;6.53;4.88;;;15.60;99.90;;;;;;4963961;28;20616;-88
2023/07/05 06:27:28;;;;;;;6.78;4.90;;;15.70;99.90;;;;;;4999468;28;20520;-88
2023/07/05 06:29:54;;;;;;;9.18;4.53;;;15.80;99.90;;;;;;4948524;28;20035;-88
2023/07/05 06:32:19;;;;;;;6.18;4.72;;;15.90;99.90;;;;;;4992334;28;20045;-87
2023/07/05 06:34:45;;;;;;;5.82;4.13;;;16.00;99.90;;;;;;4961330;28;20030;-87
2023/07/05 06:37:11;;;;;;;7.43;4.03;;;16.20;99.90;;;;;;4968729;28;20482;-88
2023/07/05 06:39:57;;;;;;;5.55;3.58;;;16.20;99.90;;;;;;4959215;28;20061;-87
2023/07/05 06:42:28;;;;;;;5.75;4.53;;;16.30;99.90;;;;;;4972918;28;20047;-87
2023/07/05 06:44:59;;;;;;;5.60;4.22;;;16.30;99.90;;;;;;4985063;28;20030;-87
2023/07/05 06:47:24;;;;;;;5.70;4.00;;;16.40;99.90;;;;;;4961684;28;20032;-87
2023/07/05 06:49:50;;;;;;;5.97;3.65;;;16.40;99.90;;;;;;4959013;28;20437;-86
2023/07/05 06:52:16;;;;;;;5.15;4.15;;;16.40;99.90;;;;;;4960549;28;20106;-87
2023/07/05 06:54:42;;;;;;;4.80;4.30;;;16.40;99.90;;;;;;4973489;28;20033;-87
2023/07/05 06:57:07;;;;;;;4.35;3.70;;;16.40;99.90;;;;;;4967865;28;20378;-87
2023/07/05 06:59:33;;;;;;;4.97;4.15;;;16.40;99.90;;;;;;4978902;28;20038;-88
2023/07/05 07:01:59;;;;;;;6.55;4.22;;;16.60;99.90;;;;;;4981185;28;20038;-87
2023/07/05 07:04:25;;;;;;;4.60;3.30;;;16.60;99.90;;;;;;4994339;28;20026;-88
2023/07/05 07:06:50;;;;;;;3.80;3.00;;;16.70;99.90;;;;;;4953144;28;20401;-86
2023/07/05 07:09:16;;;;;;;3.80;3.03;;;16.80;99.90;;;;;;4960733;28;20026;-87
2023/07/05 07:11:42;;;;;;;2.58;2.38;;;16.80;99.90;;;;;;4963880;28;20076;-87
2023/07/05 07:14:08;;;;;;;3.67;2.67;;;16.80;99.90;;;;;;4942524;28;20565;-87
2023/07/05 07:16:33;;;;;;;3.95;3.53;;;16.90;99.90;;;;;;4960572;28;20057;-88
2023/07/05 07:18:59;;;;;;;2.85;2.60;;;16.80;99.90;;;;;;4959157;28;20073;-86
2023/07/05 07:21:25;;;;;;;2.78;2.58;;;16.90;99.90;;;;;;4965455;28;20037;-86
2023/07/05 07:23:51;;;;;;;3.67;3.08;;;16.90;99.90;;;;;;4993452;28;20034;-89
2023/07/05 07:26:21;;;;;;;5.20;2.70;;;16.90;99.90;;;;;;4973212;28;20026;-88
2023/07/05 07:28:53;;;;;;;3.40;3.10;;;17.00;99.90;;;;;;4986176;28;20030;-88
2023/07/05 07:31:27;;;;;;;3.58;2.33;;;17.00;99.90;;;;;;4977433;28;20072;-88
2023/07/05 07:33:54;;;;;;;3.33;2.50;;;17.00;99.90;;;;;;4975095;28;20161;-89
2023/07/05 07:36:27;;;;;;;5.07;3.25;;;17.10;99.90;;;;;;4967005;28;20113;-87
2023/07/05 07:38:53;;;;;;;3.10;2.80;;;17.40;99.90;;;;;;4969385;28;20026;-87
2023/07/05 07:41:23;;;;;;;3.63;2.83;;;17.60;99.90;;;;;;4993774;28;20121;-87
2023/07/05 07:43:51;;;;;;;4.07;2.53;;;17.80;99.90;;;;;;4980053;28;20080;-86
2023/07/05 07:46:37;;;;;;;4.07;3.10;;;17.90;99.90;;;;;;4999492;28;20062;-87
2023/07/05 07:49:04;;;;;;;5.03;2.47;;;18.10;99.90;;;;;;5009331;28;20068;-87
2023/07/05 07:51:32;;;;;;;3.78;2.40;;;18.20;99.90;;;;;;4996544;28;20042;-86
2023/07/05 07:53:59;;;;;;;3.90;3.30;;;18.20;99.90;;;;;;4976837;28;20034;-88
2023/07/05 07:56:26;;;;;;;5.18;2.55;;;18.20;99.90;;;;;;4997671;28;20054;-87
2023/07/05 07:58:55;;;;;;;3.40;2.80;;;18.20;99.90;;;;;;4990710;28;20034;-88
2023/07/05 08:01:29;;;;;;;5.47;2.60;;;18.20;99.90;;;;;;4968533;28;20042;-87
2023/07/05 08:03:57;;;;;;;5.20;3.03;;;18.30;99.90;;;;;;4978904;28;20177;-87
2023/07/05 08:06:36;;;;;;;3.90;3.28;;;18.20;99.90;;;;;;4989579;28;20116;-88
2023/07/05 08:09:06;;;;;;;3.75;2.65;;;18.20;99.90;;;;;;4979650;28;20037;-86
2023/07/05 08:11:33;;;;;;;4.05;3.58;;;18.10;99.90;;;;;;4992435;28;20030;-87
2023/07/05 08:13:59;;;;;;;4.00;2.72;;;18.00;99.90;;;;;;4983316;28;20105;-88
2023/07/05 08:16:25;;;;;;;5.45;2.88;;;17.90;99.90;;;;;;4974867;28;20169;-88
2023/07/05 08:18:52;;;;;;;4.38;2.70;;;17.90;99.90;;;;;;4973171;28;20035;-87
2023/07/05 08:21:18;;;;;;;3.45;3.10;;;17.70;99.90;;;;;;4999775;28;20030;-87
2023/07/05 08:24:27;;;;;;;3.47;2.42;;;17.60;99.90;;;;;;4997016;28;20489;-88
2023/07/05 08:26:54;;;;;;;3.10;2.80;;;17.50;99.90;;;;;;4980535;28;20042;-87
2023/07/05 08:29:20;;;;;;;4.15;2.97;;;17.40;99.90;;;;;;4979731;28;20026;-88
2023/07/05 08:31:49;;;;;;;4.80;2.92;;;17.40;99.90;;;;;;4970770;28;20064;-89
2023/07/05 08:34:15;;;;;;;4.82;3.38;;;17.40;99.90;;;;;;4979053;28;20113;-90
2023/07/05 08:36:42;;;;;;;4.30;2.92;;;17.40;99.90;;;;;;4981778;28;20042;-87
2023/07/05 08:39:10;;;;;;;4.90;2.85;;;17.30;99.90;;;;;;4972447;28;20030;-87
2023/07/05 08:41:43;;;;;;;3.53;3.08;;;17.20;99.90;;;;;;4990638;28;20096;-88
2023/07/05 08:44:30;;;;;;;3.50;2.90;;;17.20;99.90;;;;;;4989038;28;20034;-88
2023/07/05 08:46:55;;;;;;;5.10;3.15;;;17.10;99.90;;;;;;4980263;28;20018;-87
2023/07/05 08:50:09;;;;;;;6.53;2.90;;;17.00;99.90;;;;;;4994068;28;20025;-86
2023/07/05 08:52:44;;;;;;;5.15;3.10;;;16.80;99.90;;;;;;4974933;28;20408;-87
2023/07/05 08:55:18;;;;;;;6.18;3.17;;;16.70;99.90;;;;;;4975882;28;20037;-86
2023/07/05 08:57:58;;;;;;;5.05;3.45;;;16.60;99.90;;;;;;4993676;28;20034;-86
2023/07/05 09:00:50;;;;;;;6.35;3.28;;;16.50;99.90;;;;;;4968333;28;20026;-85
2023/07/05 09:03:16;;;;;;;5.88;2.70;;;16.30;99.90;;;;;;4971454;28;20041;-86
2023/07/05 09:05:48;;;;;;;3.80;3.25;;;16.30;99.90;;;;;;4979885;28;20027;-87
2023/07/05 09:08:32;;;;;;;2.97;2.58;;;16.20;99.90;;;;;;5000165;28;20031;-86
2023/07/05 09:11:05;;;;;;;5.32;3.00;;;16.10;99.90;;;;;;4992114;28;20054;-89
2023/07/05 09:13:41;;;;;;;4.68;3.10;;;16.00;99.90;;;;;;4977020;28;20039;-87
2023/07/05 09:16:26;;;;;;;4.47;3.38;;;16.00;99.90;;;;;;4992576;28;20027;-87
2023/07/05 09:19:13;;;;;;;3.58;3.13;;;16.00;99.90;;;;;;4985883;28;20029;-88
2023/07/05 09:21:51;;;;;;;6.00;3.30;;;16.00;99.90;;;;;;4969130;28;20057;-87
2023/07/05 09:24:38;;;;;;;5.60;3.28;;;16.10;99.90;;;;;;4970954;28;20026;-88
2023/07/05 09:27:43;;;;;;;3.00;2.67;;;16.00;99.90;;;;;;4993437;28;20500;-89
2023/07/05 09:30:14;;;;;;;3.20;2.88;;;16.10;99.90;;;;;;4956826;28;20049;-87
2023/07/05 09:32:51;;;;;;;5.13;2.72;;;16.10;99.90;;;;;;4995615;28;20050;-87
2023/07/05 09:35:25;;;;;;;5.32;3.25;;;16.10;99.90;;;;;;5011967;28;20033;-87
2023/07/05 09:38:07;;;;;;;3.00;2.75;;;16.00;99.90;;;;;;5001089;28;20092;-86
2023/07/05 09:40:45;;;;;;;7.07;4.20;;;16.00;99.90;;;;;;4958181;28;20061;-87
2023/07/05 09:43:45;;;;;;;4.60;3.03;;;16.00;99.90;;;;;;4990486;28;20066;-87
2023/07/05 09:46:25;;;;;;;3.35;3.08;;;16.10;99.90;;;;;;4988243;28;20507;-87
2023/07/05 09:48:54;;;;;;;4.10;3.25;;;16.10;99.90;;;;;;4982696;28;20026;-89
2023/07/05 09:51:22;;;;;;;4.05;3.30;;;16.10;99.90;;;;;;4994159;28;20396;-89
2023/07/05 09:54:01;;;;;;;5.18;3.50;;;16.10;99.90;;;;;;4972263;28;20058;-87
2023/07/05 09:56:28;;;;;;;4.10;3.60;;;16.20;99.90;;;;;;4984210;28;20042;-88
2023/07/05 09:59:08;;;;;;;6.28;3.55;;;16.30;99.90;;;;;;4957493;28;20061;-87
2023/07/05 10:01:35;;;;;;;4.57;3.42;;;16.30;99.90;;;;;;4981433;28;20045;-86
2023/07/05 10:04:03;;;;;;;4.75;3.45;;;16.30;99.90;;;;;;4967001;28;20479;-87
2023/07/05 10:06:29;;;;;;;3.50;3.03;;;16.40;99.90;;;;;;4990231;28;20050;-86
2023/07/05 10:09:02;;;;;;;3.97;2.95;;;16.50;99.90;;;;;;4988673;28;20096;-86
2023/07/05 10:11:34;;;;;;;3.83;2.60;;;16.60;99.90;;;;;;4997920;28;20037;-86
2023/07/05 10:14:10;;;;;;;2.42;2.05;;;16.80;99.90;;;;;;4991289;28;20030;-86
2023/07/05 10:17:06;;;;;;;2.35;2.15;;;16.90;99.90;;;;;;4989043;28;20033;-87
2023/07/05 10:19:41;;;;;;;2.20;1.98;;;17.10;99.90;;;;;;4967615;28;20026;-86
2023/07/05 10:22:26;;;;;;;2.20;2.00;;;17.20;99.90;;;;;;4979400;28;20027;-86
2023/07/05 10:24:59;;;;;;;4.03;2.33;;;17.30;99.90;;;;;;4987412;28;20091;-87
2023/07/05 10:27:36;;;;;;;3.10;2.22;;;17.40;99.90;;;;;;4952120;28;20034;-87
2023/07/05 10:30:13;;;;;;;4.68;1.92;;;17.60;99.90;;;;;;4992948;28;20450;-87
2023/07/05 10:32:43;;;;;;;2.70;1.83;;;17.90;99.90;;;;;;4990840;28;20062;-87
2023/07/05 10:35:29;;;;;;;1.88;1.70;;;18.10;99.90;;;;;;4990383;28;20038;-86
2023/07/05 10:37:54;;;;;;;;;;;18.30;99.90;;;;;;4979235;28;20500;-87
2023/07/05 10:40:21;;;;;;;;;;;18.50;99.90;;;;;;4992908;28;19921;-87
2023/07/05 10:42:55;;;;;;;1.90;1.80;;;18.70;99.90;;;;;;4976311;28;19918;-86
2023/07/05 10:45:22;;;;;;;2.88;1.67;;;18.70;99.90;;;;;;4976954;28;20048;-87
2023/07/05 10:47:52;;;;;;;1.98;1.50;;;18.90;99.90;;;;;;4957347;28;20054;-87
2023/07/05 10:50:28;;;;;;;3.15;1.50;;;18.90;99.90;;;;;;4976734;28;20439;-87
2023/07/05 10:53:15;;;;;;;3.63;1.45;;;18.90;99.90;;;;;;4975913;28;20101;-87
2023/07/05 10:56:12;;;;;;;1.85;1.50;;;19.00;99.90;;;;;;4976142;28;20397;-87
2023/07/05 10:58:50;;;;;;;2.33;1.65;;;19.10;99.90;;;;;;4990907;28;20058;-85
2023/07/05 11:01:28;;;;;;;2.25;2.05;;;19.30;99.90;;;;;;4986092;28;20686;-87
2023/07/05 11:04:00;;;;;;;2.88;2.17;;;19.30;99.90;;;;;;4973498;28;20122;-87
2023/07/05 11:06:27;;;;;;;3.42;2.30;;;19.10;99.90;;;;;;4967987;28;20026;-85
2023/07/05 11:08:53;;;;;;;4.90;2.92;;;18.90;99.90;;;;;;4959004;28;20412;-86
2023/07/05 11:11:27;;;;;;;3.22;2.63;;;18.60;99.90;;;;;;4973819;28;20489;-86
2023/07/05 11:13:54;;;;;;;2.95;2.65;;;18.40;99.90;;;;;;4976207;28;20159;-86
2023/07/05 11:16:27;;;;;;;3.00;2.70;;;18.30;99.90;;;;;;4972118;28;20035;-86
2023/07/05 11:19:05;;;;;;;3.75;2.85;;;18.20;99.90;;;;;;4973058;28;20489;-87
2023/07/05 11:21:40;;;;;;;4.03;2.75;;;18.30;99.90;;;;;;4990088;28;20496;-86
2023/07/05 11:24:13;;;;;;;4.10;2.53;;;18.30;99.90;;;;;;4981488;28;20034;-86
2023/07/05 11:26:44;;;;;;;4.78;3.03;;;18.40;99.90;;;;;;4969491;28;20041;-86
2023/07/05 11:29:28;;;;;;;5.05;2.72;;;18.60;99.90;;;;;;4973104;28;20069;-86
2023/07/05 11:31:53;;;;;;;3.40;2.78;;;18.90;99.90;;;;;;4971450;28;20473;-85
2023/07/05 11:34:25;;;;;;;2.70;2.50;;;19.20;99.90;;;;;;4964403;28;20023;-86
2023/07/05 11:37:14;;;;;;;4.38;3.00;;;19.50;99.90;;;;;;4973380;28;20113;-86
2023/07/05 11:39:48;;;;;;;4.35;2.97;;;19.60;99.90;;;;;;4963321;28;20069;-86
2023/07/05 11:42:14;;;;;;;6.18;2.72;;;19.80;99.90;;;;;;4982988;28;20031;-86
2023/07/05 11:44:48;;;;;;;4.93;2.80;;;20.10;99.90;;;;;;4964702;28;20027;-85
2023/07/05 11:47:22;;;;;;;3.45;3.08;;;20.30;99.90;;;;;;4952174;28;20170;-86
2023/07/05 11:50:09;;;;;;;5.97;2.60;;;20.50;99.90;;;;;;4978131;28;20030;-86
2023/07/05 11:52:42;;;;;;;4.55;2.60;;;20.60;99.90;;;;;;4978877;28;20027;-86
2023/07/05 11:55:16;;;;;;;4.20;2.97;;;20.60;99.90;;;;;;4945736;28;20046;-86
2023/07/05 11:58:00;;;;;;;4.72;3.22;;;20.60;99.90;;;;;;4976304;28;20093;-86
2023/07/05 12:00:39;;;;;;;3.20;2.90;;;20.50;99.90;;;;;;4977996;28;20042;-86
2023/07/05 12:03:24;;;;;;;3.97;3.22;;;20.50;99.90;;;;;;4984443;28;20057;-85
2023/07/05 12:06:06;;;;;;;3.53;2.92;;;20.50;99.90;;;;;;4951449;28;20026;-87
2023/07/05 12:08:39;;;;;;;4.10;3.15;;;20.70;99.90;;;;;;4969174;28;20035;-86
2023/07/05 12:11:05;;;;;;;4.85;3.30;;;20.90;99.90;;;;;;4988584;28;20030;-86
2023/07/05 12:13:34;;;;;;;4.85;3.53;;;21.10;99.90;;;;;;4942330;28;20054;-85
2023/07/05 12:16:06;;;;;;;5.75;3.35;;;21.30;99.90;;;;;;4973443;28;20121;-86
2023/07/05 12:18:32;;;;;;;3.33;2.97;;;21.40;99.90;;;;;;4982559;28;20041;-87
2023/07/05 12:20:58;;;;;;;3.75;3.25;;;21.50;99.90;;;;;;4973404;28;20634;-84
2023/07/05 12:23:29;;;;;;;4.13;3.45;;;21.70;99.90;;;;;;4969189;28;20409;-86
2023/07/05 12:25:56;;;;;;;4.65;3.47;;;21.70;99.90;;;;;;4956658;28;20026;-86
2023/07/05 12:28:27;;;;;;;5.50;3.80;;;21.80;98.20;;;;;;4964120;28;20401;-88
2023/07/05 12:31:03;;;;;;;4.18;3.45;;;22.00;99.90;;;;;;4990846;28;20033;-87
2023/07/05 12:33:36;;;;;;;;;;;22.10;97.30;;;;;;4972427;28;20099;-87
2023/07/05 12:36:06;;;;;;;5.10;4.22;;;22.30;98.50;;;;;;4987537;28;20377;-86
2023/07/05 12:38:32;;;;;;;4.35;3.50;;;22.50;98.70;;;;;;4958114;28;20035;-86
2023/07/05 12:40:59;;;;;;;4.38;3.45;;;22.70;99.90;;;;;;4965703;28;20146;-87
2023/07/05 12:43:28;;;;;;;5.07;3.45;;;22.40;93.00;;;;;;4971014;28;20034;-86
2023/07/05 12:46:09;;;;;;;4.40;3.72;;;22.40;98.40;;;;;;4989305;28;20088;-86
2023/07/05 12:48:36;;;;;;;5.30;3.88;;;22.40;94.30;;;;;;4979131;28;20026;-87
2023/07/05 12:51:22;;;;;;;4.65;3.28;;;22.40;94.10;;;;;;4971279;28;20069;-86
2023/07/05 12:53:49;;;;;;;3.58;3.25;;;22.30;98.00;;;;;;4971701;28;20042;-88
2023/07/05 12:56:22;;;;;;;5.60;3.35;;;22.30;97.50;;;;;;4977141;28;20266;-86
2023/07/05 12:59:17;;;;;;;5.40;3.03;;;22.20;96.20;;;;;;4961419;28;20073;-86
2023/07/05 13:01:45;;;;;;;4.47;3.30;;;22.10;96.00;;;;;;4987276;28;20050;-86
2023/07/05 13:04:17;;;;;;;4.22;3.08;;;22.40;96.10;;;;;;4955729;28;20140;-87